x

Portland 12 Nm Southeast Of Portland,me (44007) Wave Buoy

3:50 - Tue 21st Feb 2017 All times are EST. -5 hours from GMT.

  • Sig Wave height 1.6ft
  • Swell Direction
  • Peak Period 3s
  • Average Period 4s
  • Wind
    13mph, 16mph gusts
  • Sea Temp 39°f
  • Air Temp 33°f
  • Sea Pressure 1028.2mb
  • Portland 12 Nm Southeast Of Portland,me
  • Portland 12 Nm Southeast Of Portland,me

More Historic Weather Station data

Upgrade to MSW Pro to gain access to the past 30 days of data for over 8000 Wavebouys and Weather Stations around the globe.

Join Pro

Comparision Forecast

View Surf forecast
   
mar. 02/21 3:50 1.6ft 3s 4s 13 16 mph 1028.2mb 39f 33f
2:50 1.3ft 8s 3s 16 20 mph 1028.1mb 39f 34f
1:50 1.3ft 9s 4s 13 16 mph 1028.4mb 39f 35f
12:50 1ft 9s 4s 11 13 mph 1028.2mb 39f 34f
lun. 02/20 11:50 1.3ft 8s 4s 13 16 mph 1027.8mb 39f 34f
10:50 1.3ft 10s 3s 13 16 mph 1027mb 39f 34f
9:50 1.6ft 3s 3s 16 18 mph 1026.5mb 39f 35f
8:50 1.6ft 3s 3s 18 22 mph 1026.1mb 39f 37f
7:50 1.3ft 3s 3s 20 25 mph 1025.5mb 39f 38f
6:50 1.3ft 8s 4s 16 18 mph 1024.8mb 39f 39f
5:50 1.6ft 3s 4s 13 16 mph 1024mb 39f 40f
4:50 1.6ft 9s 4s 18 20 mph 1022.7mb 39f 40f
3:50 1.6ft 8s 4s 18 20 mph 1022.3mb 39f 40f
2:50 1.6ft 8s 4s 16 18 mph 1021.5mb 39f 39f
1:50 1.6ft 8s 4s 13 18 mph 1020.7mb 39f 38f
12:50 2ft 8s 3s 13 16 mph 1020.9mb 39f 37f
11:50 2ft 3s 3s 20 22 mph 1020.8mb 39f 36f
10:50 1.6ft 3s 3s 20 25 mph 1020.9mb 39f 35f
9:50 2ft 3s 3s 20 25 mph 1020.5mb 39f 35f
8:50 2.5ft 3s 4s 18 20 mph 1020.1mb 38f 35f
7:50 2.5ft 3s 4s 20 27 mph 1018.7mb 38f 35f
6:50 2.5ft 4s 4s 20 22 mph 1017.7mb 38f 36f
5:50 3ft 4s 4s 22 27 mph 1016mb 38f 37f
4:50 2.5ft 8s 4s 18 20 mph 1015.2mb 38f 38f
3:50 2ft 8s 4s 18 20 mph 1014.4mb 38f 38f
2:50 2ft 8s 5s 16 20 mph 1013.5mb 38f 40f
1:50 1.6ft 8s 5s 11 13 mph 1013.1mb 38f 40f
12:50 1.6ft 8s 6s 7 9 mph 1012.5mb 38f 40f
dim. 02/19 11:50 1.3ft 8s 6s 11
mph
1011.8mb 38f 42f
10:50 1.3ft 9s 6s 7 9 mph 1011mb 38f 42f
9:50 1.3ft 9s 6s 2 4 mph 1010.7mb 38f 44f
8:50 1.3ft 6s 5s 7 9 mph 1009.9mb 38f 46f
7:50 1.6ft 6s 5s 11
mph
1009.2mb 38f 45f
6:50 2ft 5s 5s 9 11 mph 1008.5mb 38f 46f
5:50 2.5ft 5s 4s 9 11 mph 1007.3mb 38f 47f
4:50 2.5ft 6s 4s 9 11 mph 1006.2mb 38f 46f
3:50 2.5ft 5s 5s 16 20 mph 1004.6mb 38f 50f
2:50 2.5ft 5s 4s 9 16 mph 1003.6mb 38f 47f
1:50 2.5ft 8s 5s 9 11 mph 1002.5mb 38f 44f
12:50 2.5ft 6s 5s 7
mph
1002.4mb 38f 44f
11:50 2.5ft 6s 5s 9
mph
1002.7mb 38f 43f
10:50 2.5ft 6s 5s 9
mph
1003.5mb 38f 42f
9:50 2.5ft 6s 5s 11
mph
1003.5mb 38f 41f
8:50 3ft 6s 5s 9
mph
1003.3mb 38f 41f
7:50 3.5ft 6s 5s 13 16 mph 1002.4mb 38f 41f
6:50 3.5ft 7s 5s 13 16 mph 1001.8mb 38f 42f
5:50 3.5ft 6s 5s 13 16 mph 1000.8mb 38f 42f
4:50 3.5ft 7s 5s 11 13 mph 1000.1mb 38f 41f
3:50 4ft 6s 5s 9 11 mph 999.6mb 39f 41f
2:50 4ft 6s 5s 9 11 mph 999mb 39f 40f
1:50 4.5ft 6s 5s 13 16 mph 998.5mb 38f 41f
12:50 4.5ft 7s 5s 13 16 mph 998mb 38f 43f
sam. 02/18 11:50 4.5ft 7s 5s 16 18 mph 997.5mb 38f 43f
10:50 4.5ft 7s 5s 16 18 mph 997.3mb 39f 42f
9:50 4.5ft 6s 5s 18 20 mph 997.5mb 39f 42f
8:50 4ft 6s 4s 20 22 mph 997.1mb 39f 43f
7:50 3.5ft 6s 4s 20 22 mph 996.9mb 39f 43f
6:50 3.5ft 5s 4s 18 22 mph 997.4mb 39f 43f
5:50 2.5ft 5s 4s 16 18 mph 998.4mb 39f 42f
4:50 3ft 5s 4s 11 13 mph 999mb 39f 42f
3:50 3.5ft 5s 4s 11 13 mph 1000.1mb 39f 41f
2:50 3ft 5s 4s 18 22 mph 1000.9mb 39f 41f
1:50 2.5ft 4s 4s 20 25 mph 1002mb 39f 40f
12:50 2ft 4s 4s 16 18 mph 1003mb 39f 38f
11:50 1.6ft 3s 4s 9 11 mph 1005mb 39f 37f
10:50 1.6ft 11s 4s 13 16 mph 1006mb 39f 35f
9:50 1.3ft 11s 4s 13 18 mph 1007.4mb 38f 34f
8:50 1.3ft 11s 4s 7 9 mph 1008.2mb 39f 33f
7:50 1.3ft 11s 4s 2 4 mph 1008.6mb 38f 32f
6:50 1.3ft 11s 4s 2
mph
1008mb 38f 31f
5:50 1ft 11s 4s 7 9 mph 1008.1mb 38f 31f
4:50 1ft 11s 4s 7
mph
1008.1mb 38f 31f
3:50 1.3ft 11s 4s 7 9 mph 1008.5mb 38f 31f
2:50 1.3ft 12s 4s 11 13 mph 1008.5mb 38f 31f
1:50 1ft 11s 4s 9
mph
1008.5mb 38f 31f
12:50 1.3ft 12s 5s 9
mph
1008mb 38f 31f
ven. 02/17 11:50 1.3ft 11s 4s 7 9 mph 1007.6mb 38f 31f
10:50 1.6ft 11s 4s 13 18 mph 1006.8mb 38f 32f
9:50 1.6ft 11s 4s 7 11 mph 1007mb 39f 32f
8:50 1.6ft 10s 4s 11
mph
1006.5mb 39f 32f
7:50 1.6ft 11s 4s 13 16 mph 1005.7mb 38f 34f
6:50 1.6ft 11s 4s 16 18 mph 1004.6mb 39f 35f
5:50 1.6ft 11s 4s 13 18 mph 1003.5mb 39f 37f
4:50 1.6ft 12s 4s 11 13 mph 1002.9mb 39f 38f
3:50 1.6ft 12s 4s 16 18 mph 1002mb 39f 38f
2:50 1.6ft 12s 4s 18 20 mph 1001.5mb 39f 37f
1:50 1.6ft 4s 4s 13 16 mph 1001.6mb 39f 37f
12:50 1.6ft 12s 4s 11 16 mph 1001.7mb 39f 35f
11:50 2ft 12s 4s 13 18 mph 1002.1mb 39f 31f
10:50 2ft 11s 4s 16 20 mph 1002.4mb 39f 29f